Date,TemperatureHighF,TemperatureAvgF,TemperatureLowF,DewpointHighF,DewpointAvgF,DewpointLowF,HumidityHigh,HumidityAvg,HumidityLow,PressureMaxIn,PressureMinIn,WindSpeedMaxMPH,WindSpeedAvgMPH,GustSpeedMaxMPH,PrecipitationSumIn
2013-2-1,32.0,30.5,29.0,32.0,29.0,25.0,99,94,85,30.31,30.10,15,10,24,0.00
2013-2-2,32.0,27.7,23.0,27.0,24.0,21.0,93,86,75,30.38,30.24,15,6,19,0.01
2013-2-3,34.0,25.5,20.0,25.0,20.8,18.0,92,83,63,30.24,30.06,12,4,18,0.04
2013-2-4,28.0,23.8,20.0,23.0,18.8,16.0,90,81,71,30.09,30.01,18,8,25,0.02
2013-2-5,36.0,30.3,25.0,20.0,18.7,17.0,82,62,50,30.05,29.82,21,15,29,0.00
2013-2-6,36.0,28.5,23.0,26.0,23.3,18.0,95,81,56,30.07,29.84,16,8,23,0.00
2013-2-7,29.0,25.5,19.0,18.0,14.6,8.0,85,65,42,30.07,29.78,21,14,29,0.00
2013-2-8,33.0,28.3,25.0,29.0,17.5,7.0,96,67,38,29.78,29.58,16,7,22,0.02
2013-2-9,25.0,21.6,20.0,21.0,18.7,16.0,93,89,75,29.71,29.54,17,11,26,0.02
2013-2-10,22.0,19.3,15.0,19.0,12.7,0.0,92,76,48,29.93,29.71,13,7,23,0.00
2013-2-11,22.0,17.2,14.0,11.0,1.1,-8.0,70,49,32,30.08,29.92,8,4,19,0.00
2013-2-12,20.0,16.4,12.0,15.0,9.1,2.0,87,73,62,30.19,30.08,14,7,19,0.00
2013-2-13,31.0,23.7,17.0,23.0,18.2,13.0,85,80,69,30.18,30.07,19,9,32,0.00
2013-2-14,30.0,26.9,21.0,24.0,22.0,18.0,94,82,66,30.28,30.08,17,8,27,0.00
2013-2-15,32.0,26.7,21.0,23.0,20.9,17.0,90,79,67,30.40,30.28,17,6,24,0.00
2013-2-16,32.0,26.6,21.0,23.0,20.2,17.0,90,77,64,30.33,29.86,25,18,31,0.00
2013-2-17,31.0,25.8,23.0,26.0,17.5,10.0,88,71,49,29.93,29.77,26,13,37,0.00
2013-2-18,25.0,22.3,18.0,17.0,14.1,7.0,83,70,57,29.98,29.78,15,10,24,0.00
2013-2-19,33.0,28.1,21.0,25.0,11.9,3.0,83,51,38,29.78,29.52,19,12,27,0.00
2013-2-20,31.0,23.8,19.0,23.0,18.7,13.0,93,82,49,29.70,29.51,17,8,26,0.00
2013-2-21,22.0,19.1,17.0,18.0,15.3,11.0,91,84,71,29.86,29.70,18,9,25,0.01
2013-2-22,24.0,21.7,19.0,21.0,19.0,16.0,93,89,77,29.97,29.83,17,9,28,0.03
2013-2-23,23.0,20.5,18.0,21.0,18.4,15.0,97,91,87,29.85,29.57,27,14,38,0.01
2013-2-24,21.0,16.9,11.0,19.0,11.4,5.0,90,79,69,30.10,29.85,13,6,17,0.01
2013-2-25,21.0,17.6,13.0,19.0,12.4,8.0,92,80,70,30.10,29.86,22,13,31,0.00
2013-2-26,21.0,19.1,17.0,19.0,16.8,13.0,92,90,82,30.18,29.88,14,7,21,0.00
2013-2-27,22.0,17.0,11.0,14.0,11.6,7.0,87,80,68,30.27,30.18,19,11,26,0.00
2013-2-28,26.0,20.7,16.0,21.0,13.7,9.0,92,75,59,30.37,30.22,22,16,30,0.00